Time;durP1;ratioP1;P1;durP2;ratioP2;P2;SDS_P1;SDS_P2;PMS_P1;PMS_P2;Temp;Humidity;BMP_temperature;BMP_pressure;BME280_temperature;BME280_humidity;BME280_pressure;Samples;Min_cycle;Max_cycle;Signal;HPM_P1;HPM_P2
2022/02/21 00:01:02;;;;;;;0.47;0.20;;;33.90;82.30;;;;;;5048303;28;20112;-76
2022/02/21 00:03:30;;;;;;;0.13;0.10;;;33.90;81.70;;;;;;5049606;28;20090;-76
2022/02/21 00:05:57;;;;;;;0.40;0.20;;;33.90;82.50;;;;;;5051064;28;20380;-78
2022/02/21 00:08:25;;;;;;;1.33;0.20;;;34.10;83.40;;;;;;5046573;28;20017;-75
2022/02/21 00:10:52;;;;;;;0.28;0.20;;;34.00;82.10;;;;;;5050135;28;20035;-74
2022/02/21 00:13:19;;;;;;;2.58;0.20;;;33.80;82.60;;;;;;5047687;28;20087;-74
2022/02/21 00:15:47;;;;;;;1.25;0.20;;;33.70;82.00;;;;;;5043368;28;20098;-74
2022/02/21 00:18:14;;;;;;;0.50;0.30;;;33.70;82.60;;;;;;5046527;28;20071;-75
2022/02/21 00:20:41;;;;;;;0.20;0.17;;;34.00;83.20;;;;;;5046235;28;20037;-75
2022/02/21 00:23:09;;;;;;;0.43;0.28;;;34.50;79.60;;;;;;5027848;28;20025;-76
2022/02/21 00:25:36;;;;;;;1.50;0.28;;;34.80;79.50;;;;;;5045712;28;20079;-76
2022/02/21 00:28:04;;;;;;;0.57;0.25;;;35.00;80.90;;;;;;5044146;28;20037;-76
2022/02/21 00:30:31;;;;;;;1.42;0.30;;;34.60;79.80;;;;;;5044939;28;20548;-75
2022/02/21 00:32:58;;;;;;;0.28;0.20;;;34.20;81.30;;;;;;5043455;28;20032;-79
2022/02/21 00:35:26;;;;;;;1.63;0.30;;;34.20;81.30;;;;;;5047713;28;20025;-78
2022/02/21 00:37:53;;;;;;;0.40;0.22;;;34.30;80.40;;;;;;5047990;28;20017;-79
2022/02/21 00:40:20;;;;;;;2.15;0.30;;;34.20;80.40;;;;;;5053511;28;20025;-78
2022/02/21 00:42:48;;;;;;;0.50;0.20;;;34.40;80.20;;;;;;5047963;28;20045;-77
2022/02/21 00:45:15;;;;;;;1.38;0.20;;;34.50;80.10;;;;;;5047652;28;20036;-76
2022/02/21 00:47:46;;;;;;;1.20;0.38;;;34.70;80.10;;;;;;5046251;28;21949;-77
2022/02/21 00:50:13;;;;;;;0.77;0.40;;;34.90;80.50;;;;;;5045577;28;20028;-78
2022/02/21 00:52:40;;;;;;;1.20;0.30;;;34.90;79.00;;;;;;5048508;28;20480;-77
2022/02/21 00:55:08;;;;;;;0.82;0.28;;;34.60;79.10;;;;;;5049842;28;20135;-74
2022/02/21 00:57:36;;;;;;;1.10;0.47;;;34.40;80.60;;;;;;5046224;28;20453;-77
2022/02/21 01:00:05;;;;;;;2.40;0.40;;;34.30;80.40;;;;;;5049106;28;20048;-77
2022/02/21 01:02:33;;;;;;;0.43;0.20;;;34.20;80.20;;;;;;5049120;28;20048;-78
2022/02/21 01:05:00;;;;;;;1.00;0.20;;;34.20;80.70;;;;;;5041572;28;20040;-76
2022/02/21 01:07:28;;;;;;;0.88;0.30;;;34.10;79.40;;;;;;5048869;28;20055;-76
2022/02/21 01:09:55;;;;;;;3.33;0.50;;;33.90;78.10;;;;;;5047640;28;20021;-76
2022/02/21 01:12:24;;;;;;;0.32;0.20;;;33.90;81.80;;;;;;5048444;28;20507;-76
2022/02/21 01:14:51;;;;;;;3.00;0.98;;;34.00;79.40;;;;;;5048185;28;20061;-77
2022/02/21 01:17:22;;;;;;;4.85;0.43;;;34.00;80.10;;;;;;5054960;28;20025;-76
2022/02/21 01:19:50;;;;;;;1.13;0.60;;;34.00;78.00;;;;;;5045837;28;20468;-78
2022/02/21 01:22:18;;;;;;;1.50;0.55;;;34.10;78.50;;;;;;5045592;28;20029;-76
2022/02/21 01:24:46;;;;;;;0.60;0.30;;;34.40;78.50;;;;;;5042130;28;20057;-77
2022/02/21 01:27:16;;;;;;;1.95;0.55;;;34.30;78.30;;;;;;5040593;28;20041;-77
2022/02/21 01:29:44;;;;;;;0.70;0.30;;;34.10;78.40;;;;;;5048277;28;20051;-76
2022/02/21 01:32:11;;;;;;;1.60;0.50;;;34.00;79.00;;;;;;5044243;28;20032;-75
2022/02/21 01:34:39;;;;;;;1.65;0.40;;;34.10;79.50;;;;;;5048088;28;20048;-76
2022/02/21 01:37:07;;;;;;;4.50;0.47;;;34.10;78.80;;;;;;5043623;28;20030;-77
2022/02/21 01:39:34;;;;;;;1.48;0.20;;;34.00;79.10;;;;;;5048230;28;20154;-78
2022/02/21 01:42:03;;;;;;;0.35;0.20;;;33.90;78.40;;;;;;5042440;28;20029;-77
2022/02/21 01:44:40;;;;;;;3.35;0.40;;;33.80;79.40;;;;;;5048149;28;20020;-78
2022/02/21 01:47:09;;;;;;;3.08;0.20;;;33.90;78.30;;;;;;5047162;28;20033;-75
2022/02/21 01:49:37;;;;;;;2.60;0.30;;;34.00;79.90;;;;;;5048258;28;20414;-78
2022/02/21 01:52:06;;;;;;;2.65;0.40;;;34.30;79.50;;;;;;5046149;28;20021;-77
2022/02/21 01:54:33;;;;;;;4.72;0.40;;;34.40;80.10;;;;;;5029800;28;20051;-76
2022/02/21 01:57:01;;;;;;;0.63;0.63;;;34.40;80.10;;;;;;5046160;28;20022;-78
2022/02/21 01:59:28;;;;;;;1.25;0.65;;;34.40;79.10;;;;;;5046330;28;20078;-75
2022/02/21 02:01:56;;;;;;;1.52;0.60;;;34.40;79.60;;;;;;5045611;28;20028;-75
2022/02/21 02:04:25;;;;;;;3.20;0.50;;;34.30;80.20;;;;;;5045041;28;20111;-75
2022/02/21 02:06:53;;;;;;;0.95;0.50;;;34.40;79.00;;;;;;5049219;28;20160;-78
2022/02/21 02:09:20;;;;;;;2.33;0.55;;;34.30;77.70;;;;;;5043716;28;20476;-77
2022/02/21 02:11:48;;;;;;;0.85;0.30;;;34.30;78.70;;;;;;5050581;28;20028;-74
2022/02/21 02:14:33;;;;;;;1.50;0.50;;;34.30;78.30;;;;;;5048737;28;20686;-74
2022/02/21 02:17:06;;;;;;;2.42;0.32;;;34.60;78.60;;;;;;5050568;28;20427;-74
2022/02/21 02:19:33;;;;;;;0.82;0.50;;;34.70;77.20;;;;;;5047267;28;20037;-75
2022/02/21 02:22:21;;;;;;;1.02;0.30;;;34.90;77.30;;;;;;5046969;28;20467;-74
2022/02/21 02:24:51;;;;;;;3.08;0.32;;;35.00;76.40;;;;;;5051163;28;20039;-76
2022/02/21 02:27:19;;;;;;;2.25;0.30;;;35.20;76.90;;;;;;5051385;28;20056;-75
2022/02/21 02:29:50;;;;;;;1.58;0.40;;;35.30;76.90;;;;;;5050585;28;20033;-76
2022/02/21 02:32:17;;;;;;;0.82;0.20;;;35.10;76.30;;;;;;5050998;28;20531;-76
2022/02/21 02:34:47;;;;;;;1.88;0.40;;;35.10;75.90;;;;;;5050421;28;20028;-75
2022/02/21 02:37:16;;;;;;;0.60;0.45;;;35.30;78.20;;;;;;5050999;28;20020;-77
2022/02/21 02:39:43;;;;;;;4.38;0.30;;;35.10;78.60;;;;;;5051268;28;20387;-77
2022/02/21 02:42:11;;;;;;;1.42;0.47;;;35.10;79.10;;;;;;5042519;28;20029;-76
2022/02/21 02:44:38;;;;;;;3.05;0.30;;;35.20;78.40;;;;;;5048284;28;20563;-79
2022/02/21 02:47:07;;;;;;;4.13;0.35;;;35.30;77.70;;;;;;5048335;28;20043;-79
2022/02/21 02:49:35;;;;;;;4.47;0.60;;;35.20;78.50;;;;;;5037381;28;20116;-75
2022/02/21 02:52:04;;;;;;;8.30;0.70;;;35.30;78.60;;;;;;5048858;28;20388;-76
2022/02/21 02:54:33;;;;;;;4.22;0.60;;;35.10;79.70;;;;;;5038065;28;20017;-79
2022/02/21 02:57:01;;;;;;;3.05;0.73;;;34.60;79.40;;;;;;5054612;28;20044;-75
2022/02/21 02:59:28;;;;;;;2.55;0.68;;;34.40;80.70;;;;;;5048002;28;20044;-76
2022/02/21 03:01:55;;;;;;;4.82;0.98;;;34.00;82.20;;;;;;5049849;28;20435;-75
2022/02/21 03:04:23;;;;;;;2.03;0.75;;;33.30;83.30;;;;;;5046084;28;20029;-75
2022/02/21 03:06:50;;;;;;;8.52;1.05;;;33.20;85.10;;;;;;5051284;28;20047;-73
2022/02/21 03:09:18;;;;;;;2.22;0.70;;;33.50;84.30;;;;;;5050254;28;20021;-75
2022/02/21 03:11:46;;;;;;;3.38;0.73;;;33.60;84.70;;;;;;5049402;28;20124;-75
2022/02/21 03:14:13;;;;;;;1.27;0.50;;;33.40;85.20;;;;;;5050017;28;20213;-77
2022/02/21 03:16:40;;;;;;;1.27;0.30;;;33.40;82.30;;;;;;5049132;28;20031;-75
2022/02/21 03:19:08;;;;;;;2.05;0.60;;;33.60;81.80;;;;;;5044971;28;20032;-75
2022/02/21 03:21:35;;;;;;;5.70;1.10;;;33.70;80.90;;;;;;5044115;28;20040;-76
2022/02/21 03:24:03;;;;;;;1.88;0.55;;;34.00;82.10;;;;;;5043909;28;20021;-77
2022/02/21 03:26:30;;;;;;;2.90;0.93;;;34.20;81.70;;;;;;5046719;28;20047;-77
2022/02/21 03:28:58;;;;;;;2.38;0.50;;;34.40;80.80;;;;;;5047869;28;20039;-76
2022/02/21 03:31:25;;;;;;;4.05;1.00;;;34.60;82.10;;;;;;5049126;28;20357;-77
2022/02/21 03:33:52;;;;;;;2.63;0.90;;;34.60;83.60;;;;;;5047933;28;20025;-76
2022/02/21 03:36:20;;;;;;;6.53;0.73;;;34.70;82.20;;;;;;5047734;28;20017;-75
2022/02/21 03:38:47;;;;;;;5.32;1.20;;;34.50;82.60;;;;;;5043640;28;20503;-75
2022/02/21 03:41:15;;;;;;;5.65;1.33;;;34.30;84.40;;;;;;5051836;28;20057;-78
2022/02/21 03:43:42;;;;;;;8.38;1.48;;;34.10;87.00;;;;;;5046219;28;20071;-73
2022/02/21 03:46:09;;;;;;;6.68;2.70;;;33.90;86.20;;;;;;5049332;28;20060;-76
2022/02/21 03:48:37;;;;;;;5.00;1.50;;;34.00;87.60;;;;;;5045838;28;20033;-76
2022/02/21 03:51:04;;;;;;;5.90;1.25;;;34.00;85.80;;;;;;5039919;28;20653;-77
2022/02/21 03:53:32;;;;;;;4.82;1.73;;;34.00;86.30;;;;;;5046167;28;20130;-77
2022/02/21 03:55:59;;;;;;;7.90;2.45;;;33.90;87.10;;;;;;5050706;28;20103;-77
2022/02/21 03:58:27;;;;;;;8.52;2.00;;;33.50;87.20;;;;;;5041027;28;20357;-74
2022/02/21 04:00:54;;;;;;;9.88;1.73;;;33.30;87.70;;;;;;5043981;28;20045;-76
2022/02/21 04:03:21;;;;;;;7.55;2.10;;;33.30;88.60;;;;;;5046810;28;20379;-74
2022/02/21 04:05:48;;;;;;;5.05;1.20;;;33.40;87.80;;;;;;5051046;28;20033;-77
2022/02/21 04:08:16;;;;;;;17.33;3.55;;;33.30;88.60;;;;;;5049013;28;20047;-78
2022/02/21 04:10:43;;;;;;;7.00;2.03;;;33.20;88.60;;;;;;5048616;28;20021;-78
2022/02/21 04:13:10;;;;;;;7.97;1.75;;;33.30;89.10;;;;;;5048692;28;20608;-75
2022/02/21 04:15:41;;;;;;;6.18;1.52;;;33.10;87.60;;;;;;5042995;28;20029;-75
2022/02/21 04:18:08;;;;;;;6.35;1.17;;;32.90;88.00;;;;;;5048897;28;20450;-78
2022/02/21 04:20:36;;;;;;;6.80;1.73;;;32.80;89.00;;;;;;5050966;28;20051;-75
2022/02/21 04:23:03;;;;;;;5.10;1.27;;;32.90;89.60;;;;;;5046822;28;20044;-77
2022/02/21 04:25:31;;;;;;;7.93;1.30;;;33.10;89.50;;;;;;5051063;28;20391;-77
2022/02/21 04:27:58;;;;;;;6.65;1.73;;;33.30;89.10;;;;;;5046429;28;20017;-77
2022/02/21 04:30:28;;;;;;;6.75;1.58;;;33.40;88.60;;;;;;5048276;28;20041;-81
2022/02/21 04:32:56;;;;;;;8.15;1.67;;;33.30;89.00;;;;;;5048725;28;20029;-78
2022/02/21 04:35:25;;;;;;;9.95;1.48;;;33.30;89.30;;;;;;5044856;28;20017;-76
2022/02/21 04:37:53;;;;;;;6.18;1.50;;;32.70;88.80;;;;;;5047928;28;20071;-76
2022/02/21 04:40:24;;;;;;;6.65;1.25;;;32.30;90.50;;;;;;5048913;28;20498;-76
2022/02/21 04:42:53;;;;;;;6.68;1.33;;;32.40;90.30;;;;;;5043847;28;20404;-77
2022/02/21 04:45:24;;;;;;;8.73;1.25;;;32.30;90.20;;;;;;5048869;28;20397;-79
2022/02/21 04:47:52;;;;;;;10.77;1.90;;;32.30;90.30;;;;;;5043374;28;20415;-77
2022/02/21 04:50:21;;;;;;;6.18;1.42;;;32.20;90.10;;;;;;5050218;28;20099;-74
2022/02/21 04:52:48;;;;;;;5.63;1.30;;;32.20;90.20;;;;;;5042317;28;20432;-76
2022/02/21 04:55:16;;;;;;;6.00;1.75;;;32.20;90.10;;;;;;5046340;28;20025;-76
2022/02/21 04:57:43;;;;;;;8.68;1.52;;;32.20;89.90;;;;;;5047936;28;20029;-75
2022/02/21 05:00:13;;;;;;;8.15;2.25;;;32.20;90.10;;;;;;5048355;28;20096;-75
2022/02/21 05:02:40;;;;;;;8.88;1.35;;;32.20;90.30;;;;;;5044560;28;20053;-74
2022/02/21 05:05:12;;;;;;;6.43;2.15;;;32.30;90.10;;;;;;5039766;28;20108;-75
2022/02/21 05:07:43;;;;;;;8.10;1.85;;;32.20;90.40;;;;;;5043986;28;20078;-78
2022/02/21 05:10:10;;;;;;;6.65;1.40;;;32.00;90.20;;;;;;5050447;28;20025;-77
2022/02/21 05:12:38;;;;;;;8.00;1.67;;;32.00;90.50;;;;;;5046320;28;20033;-77
2022/02/21 05:15:07;;;;;;;8.10;2.10;;;32.00;91.20;;;;;;5049918;28;20025;-78
2022/02/21 05:17:37;;;;;;;5.75;1.30;;;32.20;90.70;;;;;;5047990;28;20475;-76
2022/02/21 05:20:09;;;;;;;7.25;1.73;;;32.20;90.30;;;;;;5047602;28;20041;-78
2022/02/21 05:22:37;;;;;;;5.78;1.48;;;32.20;90.50;;;;;;5046546;28;20039;-74
2022/02/21 05:25:06;;;;;;;7.22;1.30;;;32.20;90.10;;;;;;5047184;28;20450;-75
2022/02/21 05:27:38;;;;;;;6.93;2.58;;;32.00;90.10;;;;;;5047408;28;20029;-75
2022/02/21 05:30:07;;;;;;;7.65;1.98;;;31.90;90.50;;;;;;5048136;28;20021;-76
2022/02/21 05:32:35;;;;;;;10.10;1.38;;;31.80;90.50;;;;;;5045750;28;20478;-76
2022/02/21 05:35:03;;;;;;;7.82;1.75;;;31.70;90.50;;;;;;5050804;28;20035;-75
2022/02/21 05:37:30;;;;;;;8.35;1.40;;;31.90;90.40;;;;;;5045459;28;20033;-74
2022/02/21 05:39:58;;;;;;;7.85;1.33;;;32.20;90.40;;;;;;5046008;28;20030;-76
2022/02/21 05:42:25;;;;;;;6.72;1.48;;;32.10;90.60;;;;;;5042836;28;20118;-76
2022/02/21 05:44:52;;;;;;;10.82;1.90;;;31.90;90.90;;;;;;5046135;28;20033;-75
2022/02/21 05:47:21;;;;;;;9.25;1.95;;;31.60;91.30;;;;;;5051365;28;20032;-75
2022/02/21 05:49:48;;;;;;;9.93;2.25;;;31.50;91.50;;;;;;5042849;28;20025;-75
2022/02/21 05:52:15;;;;;;;7.78;2.60;;;31.30;91.80;;;;;;5052722;28;20516;-77
2022/02/21 05:54:42;;;;;;;8.68;1.70;;;31.00;91.70;;;;;;5043885;28;20029;-74
2022/02/21 05:57:10;;;;;;;7.90;1.30;;;30.50;92.00;;;;;;5048259;28;20028;-75
2022/02/21 05:59:37;;;;;;;10.30;3.15;;;30.30;92.40;;;;;;5049545;28;20017;-76
2022/02/21 06:02:05;;;;;;;13.45;2.13;;;30.00;92.60;;;;;;5052141;28;20102;-77
2022/02/21 06:04:32;;;;;;;6.88;1.58;;;29.60;93.20;;;;;;5052407;28;20031;-79
2022/02/21 06:06:59;;;;;;;13.43;1.88;;;29.40;93.40;;;;;;5052159;28;20074;-77
2022/02/21 06:09:27;;;;;;;8.48;2.33;;;29.20;93.60;;;;;;5045992;28;20089;-77
2022/02/21 06:11:54;;;;;;;8.40;2.75;;;29.00;94.00;;;;;;5051135;28;20032;-75
2022/02/21 06:14:21;;;;;;;8.32;1.60;;;28.90;94.20;;;;;;5052530;28;20401;-76
2022/02/21 06:16:49;;;;;;;10.23;1.80;;;28.70;94.50;;;;;;5051854;28;20048;-79
2022/02/21 06:19:19;;;;;;;10.10;2.72;;;28.60;95.00;;;;;;5050568;28;20021;-79
2022/02/21 06:21:46;;;;;;;10.27;3.50;;;28.50;95.30;;;;;;5053025;28;20159;-77
2022/02/21 06:24:13;;;;;;;13.55;2.25;;;28.30;95.70;;;;;;5050450;28;20024;-77
2022/02/21 06:26:41;;;;;;;15.40;3.30;;;28.10;97.60;;;;;;5050227;28;20049;-78
2022/02/21 06:29:08;;;;;;;10.10;3.00;;;27.70;98.60;;;;;;5050592;28;20017;-79
2022/02/21 06:31:35;;;;;;;14.95;2.97;;;27.20;99.90;;;;;;5052007;28;20025;-79
2022/02/21 06:34:03;;;;;;;13.38;2.95;;;26.70;99.90;;;;;;5050093;28;20111;-80
2022/02/21 06:36:30;;;;;;;17.85;2.72;;;26.40;99.90;;;;;;5047426;28;20064;-74
2022/02/21 06:38:57;;;;;;;17.90;4.80;;;26.20;99.90;;;;;;5051178;28;20174;-76
2022/02/21 06:41:25;;;;;;;9.48;2.65;;;26.00;99.90;;;;;;5052766;28;20048;-77
2022/02/21 06:43:52;;;;;;;13.00;4.20;;;25.60;99.90;;;;;;5049446;28;20480;-78
2022/02/21 06:46:20;;;;;;;9.48;3.08;;;25.30;99.90;;;;;;5051167;28;20398;-77
2022/02/21 06:48:47;;;;;;;10.90;3.75;;;25.30;99.90;;;;;;5049471;28;20033;-75
2022/02/21 06:51:15;;;;;;;12.18;2.67;;;25.20;99.90;;;;;;5053178;28;20017;-76
2022/02/21 06:53:42;;;;;;;7.35;3.17;;;25.20;99.90;;;;;;5052235;28;20313;-77
2022/02/21 06:56:10;;;;;;;13.88;3.38;;;25.20;99.90;;;;;;5051830;28;20017;-76
2022/02/21 06:58:39;;;;;;;12.52;4.00;;;25.10;99.90;;;;;;5049512;28;20048;-78
2022/02/21 07:01:06;;;;;;;12.95;3.28;;;25.00;99.90;;;;;;5048937;28;20415;-78
2022/02/21 07:03:34;;;;;;;6.78;2.33;;;24.90;99.90;;;;;;5060354;28;20041;-78
2022/02/21 07:06:01;;;;;;;10.18;3.85;;;25.00;99.90;;;;;;5048632;28;20312;-77
2022/02/21 07:08:28;;;;;;;8.93;3.50;;;25.00;99.90;;;;;;5050058;28;20067;-78
2022/02/21 07:10:57;;;;;;;21.42;4.05;;;25.00;99.90;;;;;;5051096;28;20029;-78
2022/02/21 07:13:24;;;;;;;14.02;3.38;;;25.20;99.90;;;;;;5050509;28;20448;-76
2022/02/21 07:15:52;;;;;;;17.65;4.78;;;25.20;99.90;;;;;;5051125;28;20033;-76
2022/02/21 07:18:19;;;;;;;17.65;3.88;;;25.20;99.90;;;;;;5046809;28;20028;-76
2022/02/21 07:20:46;;;;;;;11.70;3.97;;;25.20;99.90;;;;;;5050481;28;20024;-77
2022/02/21 07:23:14;;;;;;;12.68;2.72;;;25.30;99.90;;;;;;5048830;28;20025;-77
2022/02/21 07:25:41;;;;;;;12.13;2.83;;;25.30;99.90;;;;;;5050106;28;20029;-77
2022/02/21 07:28:09;;;;;;;10.95;3.03;;;25.30;99.90;;;;;;5049477;28;20044;-77
2022/02/21 07:30:36;;;;;;;9.43;2.60;;;25.40;99.90;;;;;;5052024;28;20029;-77
2022/02/21 07:33:03;;;;;;;14.65;4.32;;;25.40;99.90;;;;;;5052555;28;20357;-78
2022/02/21 07:35:31;;;;;;;9.18;3.10;;;25.40;99.90;;;;;;5049831;28;20033;-78
2022/02/21 07:37:58;;;;;;;13.18;3.22;;;25.50;99.90;;;;;;5045697;28;20037;-77
2022/02/21 07:40:26;;;;;;;16.30;3.22;;;25.50;99.90;;;;;;5048034;28;20044;-77
2022/02/21 07:42:55;;;;;;;16.70;3.78;;;25.70;99.90;;;;;;5042877;28;20123;-76
2022/02/21 07:45:24;;;;;;;13.68;4.10;;;25.60;99.90;;;;;;5050902;28;20060;-75
2022/02/21 07:47:55;;;;;;;11.98;3.50;;;25.40;99.90;;;;;;5049225;28;20104;-77
2022/02/21 07:54:40;;;;;;;13.27;4.05;;;24.90;99.90;;;;;;5059581;28;20052;-77
2022/02/21 07:57:07;;;;;;;13.52;4.40;;;24.70;99.90;;;;;;5064259;28;20044;-79
2022/02/21 07:59:35;;;;;;;15.35;4.28;;;24.50;99.90;;;;;;5054095;28;20037;-77
2022/02/21 08:02:03;;;;;;;12.15;3.40;;;24.40;99.90;;;;;;5057422;28;20136;-77
2022/02/21 08:04:30;;;;;;;14.00;3.40;;;24.30;99.90;;;;;;5064792;28;20063;-77
2022/02/21 08:06:57;;;;;;;13.30;3.80;;;24.20;99.90;;;;;;5062042;28;20045;-76
2022/02/21 08:09:25;;;;;;;14.48;3.88;;;24.00;99.90;;;;;;5056918;28;20025;-77
2022/02/21 08:11:52;;;;;;;14.07;4.47;;;24.10;99.90;;;;;;5051961;28;20033;-77
2022/02/21 08:14:19;;;;;;;12.88;3.22;;;24.20;99.90;;;;;;5051175;28;20042;-76
2022/02/21 08:16:47;;;;;;;11.77;3.60;;;24.20;99.90;;;;;;5048329;28;20037;-77
2022/02/21 08:19:14;;;;;;;9.98;3.55;;;24.20;99.90;;;;;;5050253;28;20096;-77
2022/02/21 08:21:42;;;;;;;13.82;3.72;;;24.10;99.90;;;;;;5049895;28;20029;-77
2022/02/21 08:24:10;;;;;;;12.82;4.55;;;24.00;99.90;;;;;;5051900;28;20395;-77
2022/02/21 08:26:37;;;;;;;14.32;3.58;;;24.00;99.90;;;;;;5047447;28;20425;-76
2022/02/21 08:29:05;;;;;;;12.60;4.60;;;24.20;99.90;;;;;;5048332;28;20090;-77
2022/02/21 08:31:32;;;;;;;11.07;3.42;;;24.30;99.90;;;;;;5047274;28;20109;-78
2022/02/21 08:34:00;;;;;;;11.32;3.50;;;24.40;99.90;;;;;;5045540;28;20132;-77
2022/02/21 08:36:27;;;;;;;10.27;5.05;;;24.40;99.90;;;;;;5049178;28;20028;-77
2022/02/21 08:38:55;;;;;;;6.78;2.67;;;24.20;99.90;;;;;;5050297;28;20349;-77
2022/02/21 08:41:23;;;;;;;19.00;3.90;;;24.30;99.90;;;;;;5049947;28;20031;-77
2022/02/21 08:43:50;;;;;;;5.13;2.72;;;24.30;99.90;;;;;;5043883;28;20049;-77
2022/02/21 08:46:18;;;;;;;7.03;2.42;;;24.30;99.90;;;;;;5048106;28;20036;-77
2022/02/21 08:48:48;;;;;;;13.80;5.68;;;24.30;99.90;;;;;;5049660;28;20045;-76
2022/02/21 08:51:15;;;;;;;14.55;7.80;;;24.20;99.90;;;;;;5044349;28;21505;-77
2022/02/21 08:53:42;;;;;;;10.68;5.93;;;24.20;99.90;;;;;;5047401;28;20505;-77
2022/02/21 08:56:10;;;;;;;9.77;4.60;;;24.00;99.90;;;;;;5048087;28;20033;-76
2022/02/21 08:58:37;;;;;;;11.07;5.07;;;23.90;99.90;;;;;;5050318;28;20025;-75
2022/02/21 09:01:08;;;;;;;9.98;3.95;;;23.90;99.90;;;;;;5049287;28;20044;-77
2022/02/21 09:03:35;;;;;;;13.52;4.30;;;23.90;99.90;;;;;;5048002;28;20034;-77
2022/02/21 09:06:02;;;;;;;9.43;4.20;;;23.90;99.90;;;;;;5048305;28;20060;-76
2022/02/21 09:08:31;;;;;;;20.00;5.18;;;23.70;99.90;;;;;;5049781;28;20021;-78
2022/02/21 09:11:00;;;;;;;7.80;4.35;;;23.60;99.90;;;;;;5048925;28;20068;-77
2022/02/21 09:13:27;;;;;;;10.30;4.20;;;23.50;99.90;;;;;;5049419;28;20023;-78
2022/02/21 09:15:54;;;;;;;8.10;4.05;;;23.60;99.90;;;;;;5049570;28;20028;-78
2022/02/21 09:18:23;;;;;;;13.70;4.28;;;23.60;99.90;;;;;;5046042;28;20031;-75
2022/02/21 09:20:52;;;;;;;9.20;4.20;;;23.70;99.90;;;;;;5028885;28;20025;-77
2022/02/21 09:23:20;;;;;;;10.15;3.00;;;23.80;99.90;;;;;;5045488;28;20021;-78
2022/02/21 09:25:48;;;;;;;8.68;3.13;;;23.90;99.90;;;;;;5039509;28;20036;-78
2022/02/21 09:28:15;;;;;;;7.65;3.13;;;24.00;99.90;;;;;;5046849;28;20029;-76
2022/02/21 09:30:43;;;;;;;15.23;3.53;;;24.10;99.90;;;;;;5046198;28;20040;-77
2022/02/21 09:33:10;;;;;;;10.95;3.03;;;24.10;99.90;;;;;;5047513;28;20029;-78
2022/02/21 09:35:37;;;;;;;8.43;2.72;;;24.10;99.90;;;;;;5047494;28;20395;-78
2022/02/21 09:38:06;;;;;;;8.45;3.33;;;24.10;99.90;;;;;;5047525;28;20128;-76
2022/02/21 09:40:33;;;;;;;11.02;3.80;;;24.10;99.90;;;;;;5040198;28;20053;-77
2022/02/21 09:43:01;;;;;;;7.57;2.78;;;24.10;99.90;;;;;;5041214;28;20092;-77
2022/02/21 09:45:29;;;;;;;8.25;3.40;;;24.20;99.90;;;;;;5046201;28;20021;-77
2022/02/21 09:47:58;;;;;;;8.98;4.28;;;24.10;99.90;;;;;;5049165;28;20558;-77
2022/02/21 09:50:28;;;;;;;9.45;4.47;;;23.90;99.90;;;;;;5045102;28;20029;-78
2022/02/21 09:53:01;;;;;;;8.88;3.63;;;23.70;99.90;;;;;;5046434;28;20025;-78
2022/02/21 09:55:29;;;;;;;12.98;4.40;;;23.60;99.90;;;;;;5048599;28;20021;-78
2022/02/21 09:57:57;;;;;;;13.95;5.05;;;23.50;99.90;;;;;;5043617;28;20025;-78
2022/02/21 10:00:25;;;;;;;8.15;3.78;;;23.40;99.90;;;;;;5047556;28;20056;-77
2022/02/21 10:02:53;;;;;;;9.57;3.90;;;23.40;99.90;;;;;;5047369;28;20585;-78
2022/02/21 10:05:25;;;;;;;10.80;4.35;;;23.30;99.90;;;;;;5047856;28;20029;-77
2022/02/21 10:07:53;;;;;;;11.95;3.83;;;23.40;99.90;;;;;;5049621;28;20112;-78
2022/02/21 10:10:23;;;;;;;13.50;4.82;;;23.50;99.90;;;;;;5043552;28;20033;-78
2022/02/21 10:12:53;;;;;;;17.15;4.97;;;23.50;99.90;;;;;;5050185;28;20017;-78
2022/02/21 10:15:24;;;;;;;9.70;3.53;;;23.50;99.90;;;;;;5043537;28;20078;-77
2022/02/21 10:18:08;;;;;;;12.75;4.30;;;23.50;99.90;;;;;;5049692;28;20436;-77
2022/02/21 10:20:52;;;;;;;9.70;4.90;;;23.50;99.90;;;;;;5046911;28;20025;-77
2022/02/21 10:23:19;;;;;;;13.27;4.47;;;23.40;99.90;;;;;;5049603;28;20025;-78
2022/02/21 10:25:58;;;;;;;11.40;5.07;;;23.40;99.90;;;;;;5047933;28;20095;-77
2022/02/21 10:28:31;;;;;;;15.57;6.90;;;23.40;99.90;;;;;;5050348;28;20379;-79
2022/02/21 10:31:21;;;;;;;15.57;4.60;;;23.30;99.90;;;;;;5047164;28;20089;-79
2022/02/21 10:34:01;;;;;;;9.48;3.40;;;23.30;99.90;;;;;;5049731;28;20482;-78
2022/02/21 10:36:37;;;;;;;10.77;3.88;;;23.30;99.90;;;;;;5051337;28;20021;-78
2022/02/21 10:39:08;;;;;;;8.98;3.58;;;23.20;99.90;;;;;;5051852;28;20451;-78
2022/02/21 10:41:48;;;;;;;13.70;5.13;;;23.30;99.90;;;;;;5051928;28;20033;-77
2022/02/21 10:44:22;;;;;;;12.07;5.35;;;23.30;99.90;;;;;;5049376;28;20491;-79
2022/02/21 10:47:01;;;;;;;9.57;4.00;;;23.30;99.90;;;;;;5049899;28;20048;-78
2022/02/21 10:49:29;;;;;;;13.93;5.38;;;23.30;99.90;;;;;;5050313;28;20045;-78
2022/02/21 10:51:57;;;;;;;7.53;4.00;;;23.30;99.90;;;;;;5050592;28;20025;-78
2022/02/21 10:54:33;;;;;;;10.32;4.38;;;23.20;99.90;;;;;;5051988;28;20033;-78
2022/02/21 10:57:00;;;;;;;15.43;4.70;;;23.20;99.90;;;;;;5051753;28;20017;-78
2022/02/21 10:59:30;;;;;;;11.18;4.15;;;23.20;99.90;;;;;;5048289;28;20047;-79
2022/02/21 11:02:00;;;;;;;7.60;4.07;;;23.20;99.90;;;;;;5051028;28;20353;-78
2022/02/21 11:04:28;;;;;;;14.57;5.07;;;23.30;99.90;;;;;;5051186;28;20177;-79
2022/02/21 11:06:59;;;;;;;15.05;5.18;;;23.30;99.90;;;;;;5049545;28;22484;-77
2022/02/21 11:09:30;;;;;;;17.15;6.50;;;23.20;99.90;;;;;;5052019;28;20024;-78
2022/02/21 11:11:59;;;;;;;12.02;4.38;;;23.10;99.90;;;;;;5047628;28;20039;-78
2022/02/21 11:14:29;;;;;;;9.13;5.55;;;23.10;99.90;;;;;;5051441;28;20017;-78
2022/02/21 11:17:04;;;;;;;15.63;4.90;;;23.10;99.90;;;;;;5044650;28;20021;-79
2022/02/21 11:19:32;;;;;;;12.98;4.90;;;23.10;99.90;;;;;;5050667;28;20035;-78
2022/02/21 11:21:59;;;;;;;7.90;3.55;;;23.10;99.90;;;;;;5051090;28;20368;-78
2022/02/21 11:24:33;;;;;;;9.48;3.90;;;23.10;99.90;;;;;;5049724;28;20025;-78
2022/02/21 11:27:31;;;;;;;19.73;5.55;;;23.20;99.90;;;;;;5049874;28;20039;-79
2022/02/21 11:30:09;;;;;;;14.35;4.50;;;23.10;99.90;;;;;;5046246;28;20052;-77
2022/02/21 11:32:40;;;;;;;14.73;5.07;;;23.10;99.90;;;;;;5050646;28;20446;-78
2022/02/21 11:35:16;;;;;;;9.43;4.63;;;23.10;99.90;;;;;;5044926;28;20471;-79
2022/02/21 11:37:45;;;;;;;13.82;4.10;;;23.00;99.90;;;;;;5047024;28;20025;-81
2022/02/21 11:40:14;;;;;;;16.52;5.00;;;23.10;99.90;;;;;;5049465;28;20035;-78
2022/02/21 11:42:41;;;;;;;10.15;4.20;;;23.00;99.90;;;;;;5045982;28;20047;-79
2022/02/21 11:45:25;;;;;;;15.95;4.53;;;22.90;99.90;;;;;;5048047;28;20029;-79
2022/02/21 11:47:57;;;;;;;7.40;3.55;;;23.00;99.90;;;;;;5046788;28;20059;-79
2022/02/21 11:50:31;;;;;;;8.77;4.88;;;22.90;99.90;;;;;;5041995;28;20132;-79
2022/02/21 11:53:19;;;;;;;17.90;5.43;;;22.90;99.90;;;;;;5048505;28;20047;-78
2022/02/21 11:55:48;;;;;;;8.93;3.97;;;22.90;99.90;;;;;;5039080;28;20040;-78
2022/02/21 11:58:19;;;;;;;9.82;4.32;;;22.90;99.90;;;;;;5048115;28;20368;-78
2022/02/21 12:00:47;;;;;;;14.73;4.97;;;23.00;99.90;;;;;;5053601;28;20434;-78
2022/02/21 12:03:32;;;;;;;8.23;4.35;;;23.00;99.90;;;;;;5051739;28;20036;-77
2022/02/21 12:05:59;;;;;;;13.82;4.90;;;22.90;99.90;;;;;;5046133;28;20041;-78
2022/02/21 12:08:30;;;;;;;10.15;4.47;;;22.90;99.90;;;;;;5048619;28;20080;-77
2022/02/21 12:11:03;;;;;;;6.45;4.13;;;22.90;99.90;;;;;;5047447;28;20036;-77
2022/02/21 12:13:53;;;;;;;8.63;4.00;;;22.90;99.90;;;;;;5050204;28;20036;-78
2022/02/21 12:16:20;;;;;;;10.77;4.40;;;22.90;99.90;;;;;;5047282;28;20103;-77
2022/02/21 12:18:51;;;;;;;10.93;4.05;;;23.00;99.90;;;;;;5049052;28;20025;-78
2022/02/21 12:21:28;;;;;;;11.85;4.28;;;23.00;99.90;;;;;;5048139;28;20040;-78
2022/02/21 12:23:56;;;;;;;10.63;5.03;;;23.00;99.90;;;;;;5049686;28;20123;-78
2022/02/21 12:26:23;;;;;;;11.73;4.47;;;23.10;99.90;;;;;;5047242;28;20032;-77
2022/02/21 12:29:15;;;;;;;9.55;3.83;;;23.10;99.90;;;;;;5049567;28;20029;-78
2022/02/21 12:31:45;;;;;;;14.27;4.82;;;23.10;99.90;;;;;;5045736;28;20036;-75
2022/02/21 12:34:14;;;;;;;11.73;4.20;;;23.10;99.90;;;;;;5048497;28;20832;-76
2022/02/21 12:36:44;;;;;;;11.88;5.18;;;23.10;99.90;;;;;;5048469;28;20040;-77
2022/02/21 12:39:17;;;;;;;9.13;4.28;;;23.10;99.90;;;;;;5046793;28;20033;-75
2022/02/21 12:41:44;;;;;;;12.02;5.10;;;23.00;99.90;;;;;;5038411;28;20021;-76
2022/02/21 12:44:12;;;;;;;9.07;5.10;;;23.00;99.90;;;;;;5048959;28;20056;-75
2022/02/21 12:46:43;;;;;;;11.43;4.22;;;22.90;99.90;;;;;;5048010;28;20043;-75
2022/02/21 12:49:29;;;;;;;11.45;4.68;;;23.00;99.90;;;;;;5045561;28;20095;-76
2022/02/21 12:52:06;;;;;;;;;;;23.00;99.90;;;;;;5049602;28;20037;-76
2022/02/21 12:54:49;;;;;;;11.75;5.15;;;23.10;99.90;;;;;;5049346;28;19924;-76
2022/02/21 12:57:17;;;;;;;9.07;4.63;;;23.10;99.90;;;;;;5048292;28;20022;-76